Map

Track Data

SID SEASON NUMBER BASIN SUBBASIN NAME ISO_TIME NATURE LAT LON WMO_WIND WMO_PRES WMO_AGENCY TRACK_TYPE DIST2LAND LANDFALL IFLAG USA_AGENCY USA_ATCF_ID USA_LAT USA_LON USA_RECORD USA_STATUS USA_WIND USA_PRES USA_SSHS USA_R34_NE USA_R34_SE USA_R34_SW USA_R34_NW USA_R50_NE USA_R50_SE USA_R50_SW USA_R50_NW USA_R64_NE USA_R64_SE USA_R64_SW USA_R64_NW USA_POCI USA_ROCI USA_RMW USA_EYE TOKYO_LAT TOKYO_LON TOKYO_GRADE TOKYO_WIND TOKYO_PRES TOKYO_R50_DIR TOKYO_R50_LONG TOKYO_R50_SHORT TOKYO_R30_DIR TOKYO_R30_LONG TOKYO_R30_SHORT TOKYO_LAND CMA_LAT CMA_LON CMA_CAT CMA_WIND CMA_PRES HKO_LAT HKO_LON HKO_CAT HKO_WIND HKO_PRES NEWDELHI_LAT NEWDELHI_LON NEWDELHI_GRADE NEWDELHI_WIND NEWDELHI_PRES NEWDELHI_CI NEWDELHI_DP NEWDELHI_POCI REUNION_LAT REUNION_LON REUNION_TYPE REUNION_WIND REUNION_PRES REUNION_TNUM REUNION_CI REUNION_RMW REUNION_R34_NE REUNION_R34_SE REUNION_R34_SW REUNION_R34_NW REUNION_R50_NE REUNION_R50_SE REUNION_R50_SW REUNION_R50_NW REUNION_R64_NE REUNION_R64_SE REUNION_R64_SW REUNION_R64_NW BOM_LAT BOM_LON BOM_TYPE BOM_WIND BOM_PRES BOM_TNUM BOM_CI BOM_RMW BOM_R34_NE BOM_R34_SE BOM_R34_SW BOM_R34_NW BOM_R50_NE BOM_R50_SE BOM_R50_SW BOM_R50_NW BOM_R64_NE BOM_R64_SE BOM_R64_SW BOM_R64_NW BOM_ROCI BOM_POCI BOM_EYE BOM_POS_METHOD BOM_PRES_METHOD NADI_LAT NADI_LON NADI_CAT NADI_WIND NADI_PRES WELLINGTON_LAT WELLINGTON_LON WELLINGTON_WIND WELLINGTON_PRES DS824_LAT DS824_LON DS824_STAGE DS824_WIND DS824_PRES TD9636_LAT TD9636_LON TD9636_STAGE TD9636_WIND TD9636_PRES TD9635_LAT TD9635_LON TD9635_WIND TD9635_PRES TD9635_ROCI NEUMANN_LAT NEUMANN_LON NEUMANN_CLASS NEUMANN_WIND NEUMANN_PRES MLC_LAT MLC_LON MLC_CLASS MLC_WIND MLC_PRES USA_GUST BOM_GUST BOM_GUST_PER REUNION_GUST REUNION_GUST_PER USA_SEAHGT USA_SEARAD_NE USA_SEARAD_SE USA_SEARAD_SW USA_SEARAD_NW STORM_SPEED STORM_DIR
1943001S14148 1943 1 SP EA NOT_NAMED 1942-12-31 23:00:00 NR -14.0000 148.000 1000 bom main 311 311 ______O_______ -1 -14.0000 148.000 1000 2 185
1943001S14148 1943 1 SP EA NOT_NAMED 1943-01-01 00:00:00 NR -14.0394 147.987 main 311 304 ______P_______ -1 -14.0394 147.987 2 194
1943001S14148 1943 1 SP EA NOT_NAMED 1943-01-01 03:00:00 NR -14.1579 147.951 main 304 290 ______P_______ -1 -14.1579 147.951 2 196
1943001S14148 1943 1 SP EA NOT_NAMED 1943-01-01 06:00:00 NR -14.2773 147.919 main 290 287 ______P_______ -1 -14.2773 147.919 2 194
1943001S14148 1943 1 SP EA NOT_NAMED 1943-01-01 09:00:00 NR -14.3981 147.895 main 287 283 ______P_______ -1 -14.3981 147.895 2 189
1943001S14148 1943 1 SP EA NOT_NAMED 1943-01-01 12:00:00 NR -14.5210 147.883 main 283 279 ______P_______ -1 -14.5210 147.883 3 0
1943001S14148 1943 1 SP EA NOT_NAMED 1943-01-01 15:00:00 NR -14.6467 147.887 main 279 274 ______P_______ -1 -14.6467 147.887 3 0
1943001S14148 1943 1 SP EA NOT_NAMED 1943-01-01 18:00:00 NR -14.7757 147.910 main 274 272 ______P_______ -1 -14.7757 147.910 3 165
1943001S14148 1943 1 SP EA NOT_NAMED 1943-01-01 21:00:00 NR -14.9088 147.955 main 282 281 ______P_______ -1 -14.9088 147.955 3 159
1943001S14148 1943 1 SP EA NOT_NAMED 1943-01-01 23:00:00 NR -15.0000 148.000 994 bom main 281 281 ______O_______ -1 -15.0000 148.000 994 3 150
1943001S14148 1943 1 SP EA NOT_NAMED 1943-01-02 00:00:00 TS -15.0371 148.022 main 281 280 ______P__O____ -1 -15.0464 148.027 -15.0000 148.000 TC 40 994 3 144
1943001S14148 1943 1 SP EA NOT_NAMED 1943-01-02 03:00:00 TS -15.1775 148.136 main 289 289 ______P__P____ -1 -15.1883 148.125 -15.1560 148.158 TC 4 140
1943001S14148 1943 1 SP EA NOT_NAMED 1943-01-02 06:00:00 TS -15.3230 148.273 main 311 309 ______P__P____ -1 -15.3326 148.243 -15.3101 148.313 TC 4 137
1943001S14148 1943 1 SP EA NOT_NAMED 1943-01-02 09:00:00 TS -15.4690 148.419 main 315 315 ______P__P____ -1 -15.4773 148.376 -15.4607 148.461 TC 2 132
1943001S14148 1943 1 SP EA NOT_NAMED 1943-01-02 12:00:00 TS -15.4784 148.452 main 324 324 ______P__PO___ -1 -15.6204 148.517 -15.6060 148.601 TC -14.4000 147.600 7 1 120
1943001S14148 1943 1 SP EA NOT_NAMED 1943-01-02 15:00:00 TS -15.5132 148.500 main 324 318 ______P__PP___ -1 -15.7599 148.659 -15.7443 148.727 TC -14.5579 147.725 7 1 131
1943001S14148 1943 1 SP EA NOT_NAMED 1943-01-02 18:00:00 TS -15.5644 148.554 main 328 328 ______P__PP___ -1 -15.8940 148.797 -15.8738 148.838 TC -14.7126 147.850 7 2 137
1943001S14148 1943 1 SP EA NOT_NAMED 1943-01-02 21:00:00 TS -15.6249 148.610 main 328 322 ______P__PP___ -1 -16.0206 148.924 -15.9930 148.930 TC -14.8610 147.975 7 2 140
1943001S14148 1943 1 SP EA NOT_NAMED 1943-01-02 23:00:00 TS -15.7069 148.679 988 bom main 332 332 ______O__PP___ -1 -16.1000 149.000 988 -16.0658 148.979 TC -14.9549 148.058 7 3 143
1943001S14148 1943 1 SP EA NOT_NAMED 1943-01-03 00:00:00 TS -15.7433 148.705 main 332 327 ______P__OO___ -1 -16.1298 149.015 -16.1000 149.000 TC 50 988 -15.0000 148.100 7 2 147
1943001S14148 1943 1 SP EA NOT_NAMED 1943-01-03 03:00:00 TS -15.8442 148.772 main 337 332 ______P__PP___ -1 -16.2100 149.044 -16.1943 149.046 TC -15.1281 148.225 7 2 149
1943001S14148 1943 1 SP EA NOT_NAMED 1943-01-03 06:00:00 TS -15.9371 148.829 main 332 327 ______P__PP___ -1 -16.2812 149.060 -16.2800 149.077 TC -15.2500 148.350 7 2 150
1943001S14148 1943 1 SP EA NOT_NAMED 1943-01-03 09:00:00 TS -16.0278 148.883 main 336 331 ______P__PP___ -1 -16.3494 149.071 -16.3622 149.103 TC -15.3719 148.475 7 2 150
1943001S14148 1943 1 SP EA NOT_NAMED 1943-01-03 12:00:00 TS -16.1221 148.941 main 331 331 ______P__PO___ -1 -16.4203 149.091 -16.4460 149.133 TC -15.5000 148.600 7 2 149
1943001S14148 1943 1 SP EA NOT_NAMED 1943-01-03 15:00:00 TS -16.2278 149.006 main 336 332 ______P__PP___ -1 -16.5000 149.128 -16.5365 149.177 TC -15.6468 148.713 7 3 147
1943001S14148 1943 1 SP EA NOT_NAMED 1943-01-03 18:00:00 TS -16.3444 149.090 main 342 338 ______P__PP___ -1 -16.5943 149.195 -16.6390 149.247 TC -15.7999 148.828 7 3 142
1943001S14148 1943 1 SP EA NOT_NAMED 1943-01-03 21:00:00 TS -16.4735 149.202 main 344 344 ______P__PP___ -1 -16.7091 149.301 -16.7584 149.351 TC -15.9530 148.954 7 4 138
1943001S14148 1943 1 SP EA NOT_NAMED 1943-01-03 23:00:00 TS -16.5674 149.298 970 bom main 351 351 ______O__PP___ -1 -16.8000 149.400 970 4 -16.8500 149.445 TC -16.0521 149.048 7 4 134
1943001S14148 1943 1 SP EA NOT_NAMED 1943-01-04 00:00:00 TS -16.6196 149.357 main 362 359 ______P__OO___ -1 -16.8589 149.472 -16.9000 149.500 TC 70 970 -16.1000 149.100 7 5 129
1943001S14148 1943 1 SP EA NOT_NAMED 1943-01-04 03:00:00 TS -16.7924 149.585 main 372 369 ______P__PP___ -1 -17.0540 149.722 -17.0908 149.738 TC -16.2323 149.295 7 6 127
1943001S14148 1943 1 SP EA NOT_NAMED 1943-01-04 06:00:00 TS -16.9777 149.848 main 369 366 ______P__PP___ -1 -17.2714 150.016 -17.3040 150.021 TC -16.3577 149.507 7 7 126
1943001S14148 1943 1 SP EA NOT_NAMED 1943-01-04 09:00:00 TS -17.1722 150.134 main 366 365 ______P__PP___ -1 -17.5043 150.345 -17.5333 150.340 TC -16.4792 149.717 7 7 126
1943001S14148 1943 1 SP EA NOT_NAMED 1943-01-04 12:00:00 TS -17.3727 150.427 main 365 360 ______P__PO___ -1 -17.7459 150.696 -17.7723 150.684 TC -16.6000 149.900 7 7 126
1943001S14148 1943 1 SP EA NOT_NAMED 1943-01-04 15:00:00 TS -17.5723 150.702 main 362 358 ______P__PP___ -1 -17.9897 151.059 -18.0146 151.043 TC -16.7126 150.005 7 7 127
1943001S14148 1943 1 SP EA NOT_NAMED 1943-01-04 18:00:00 TS -17.7701 150.971 main 362 360 ______P__PP___ -1 -18.2289 151.422 -18.2541 151.406 TC -16.8272 150.086 7 6 128
1943001S14148 1943 1 SP EA NOT_NAMED 1943-01-04 21:00:00 TS -17.9650 151.237 main 360 360 ______P__PP___ -1 -18.4571 151.776 -18.4846 151.762 TC -16.9532 150.174 7 6 127
1943001S14148 1943 1 SP EA NOT_NAMED 1943-01-04 23:00:00 TS -18.0928 151.414 980 bom main 367 367 ______O__PP___ -1 -18.6000 152.000 980 -18.6302 151.990 TC -17.0482 150.252 7 6 127
1943001S14148 1943 1 SP EA NOT_NAMED 1943-01-05 00:00:00 TS -18.1527 151.498 main 368 368 ______P__OO___ -1 -18.6582 152.093 -18.7000 152.100 TC 60 980 -17.1000 150.300 7 6 126
1943001S14148 1943 1 SP EA NOT_NAMED 1943-01-05 03:00:00 TS -18.3217 151.747 main 377 377 ______P__PP___ -1 -18.8228 152.361 -18.8635 152.364 TC -17.2786 150.515 7 6 125
1943001S14148 1943 1 SP EA NOT_NAMED 1943-01-05 06:00:00 TS -18.4887 152.000 main 391 391 ______P__PP___ -1 -18.9753 152.617 -19.0130 152.614 TC -17.4778 150.770 7 6 125
1943001S14148 1943 1 SP EA NOT_NAMED 1943-01-05 09:00:00 TS -18.6537 152.252 main 408 408 ______P__PP___ -1 -19.1196 152.864 -19.1534 152.853 TC -17.6880 151.040 7 6 125
1943001S14148 1943 1 SP EA NOT_NAMED 1943-01-05 12:00:00 TS -18.8166 152.498 main 422 417 ______P__PO___ -1 -19.2597 153.105 -19.2900 153.089 TC -17.9000 151.300 7 6 126
1943001S14148 1943 1 SP EA NOT_NAMED 1943-01-05 15:00:00 TS -18.9798 152.724 main 431 428 ______P__PP___ -1 -19.3995 153.345 -19.4280 153.326 TC -18.1119 151.502 7 5 128
1943001S14148 1943 1 SP EA NOT_NAMED 1943-01-05 18:00:00 TS -19.1457 152.949 main 434 427 ______P__PP___ -1 -19.5428 153.586 -19.5722 153.570 TC -18.3222 151.693 7 5 128
1943001S14148 1943 1 SP EA NOT_NAMED 1943-01-05 21:00:00 TS -19.3142 153.181 main 433 424 ______P__PP___ -1 -19.6935 153.831 -19.7279 153.826 TC -18.5213 151.887 7 6 127
1943001S14148 1943 1 SP EA NOT_NAMED 1943-01-05 23:00:00 TS -19.4279 153.344 992 bom main 430 428 ______O__PP___ -1 -19.8000 154.000 992 -19.8405 154.006 TC -18.6433 152.026 7 6 126
1943001S14148 1943 1 SP EA NOT_NAMED 1943-01-06 00:00:00 TS -19.4851 153.429 main 428 427 ______P__OO___ -1 -19.8554 154.086 -19.9000 154.100 TC 45 992 -18.7000 152.100 7 6 124
1943001S14148 1943 1 SP EA NOT_NAMED 1943-01-06 03:00:00 TS -19.6550 153.703 main 433 433 ______P__PP___ -1 -20.0303 154.351 -20.0922 154.396 TC -18.8426 152.362 7 6 123
1943001S14148 1943 1 SP EA NOT_NAMED 1943-01-06 06:00:00 TS -19.8282 153.994 main 448 441 ______P__PP___ -1 -20.2166 154.626 -20.3030 154.713 TC -18.9651 152.643 7 7 122
1943001S14148 1943 1 SP EA NOT_NAMED 1943-01-06 09:00:00 TS -20.0073 154.295 main 457 457 ______P__PP___ -1 -20.4124 154.908 -20.5295 155.048 TC -19.0801 152.927 7 7 123
1943001S14148 1943 1 SP EA NOT_NAMED 1943-01-06 12:00:00 TS -20.1950 154.599 main 470 470 ______P__PO___ -1 -20.6160 155.198 -20.7690 155.399 TC -19.2000 153.200 7 7 125
1943001S14148 1943 1 SP EA NOT_NAMED 1943-01-06 15:00:00 TS -20.3969 154.893 main 484 484 ______P__PP___ -1 -20.8256 155.494 -21.0185 155.762 TC -19.3465 153.423 7 6 126
1943001S14148 1943 1 SP EA NOT_NAMED 1943-01-06 18:00:00 TS -20.5653 155.133 main 492 492 ______P__PP___ -1 -21.0394 155.794 -21.2754 156.135 TC -19.4995 153.635 7 4 127
1943001S14148 1943 1 SP EA NOT_NAMED 1943-01-06 21:00:00 TS -20.6369 155.240 main 502 502 ______P__PP___ -1 -21.2555 156.097 -21.5368 156.515 TC -19.6528 153.855 7 0 0
1943001S14148 1943 1 SP EA NOT_NAMED 1943-01-06 23:00:00 TS -20.5475 155.129 996 bom main 497 472 ______O__PP___ -1 -21.4000 156.300 996 -21.7123 156.772 TC -19.7520 154.014 7 14 309
1943001S14148 1943 1 SP EA NOT_NAMED 1943-01-07 00:00:00 TS -20.2000 154.660 main 478 466 _________OO___ -1 -21.8000 156.900 TC 35 996 -19.8000 154.100 7 14 313
1943001S14148 1943 1 SP EA NOT_NAMED 1943-01-07 03:00:00 NR -19.9202 154.409 main 472 472 __________P___ -1 TC -19.9202 154.409 7 2 25
1943001S14148 1943 1 SP EA NOT_NAMED 1943-01-07 06:00:00 NR -20.0353 154.743 main 491 491 __________P___ -1 TC -20.0353 154.743 7 7 111
1943001S14148 1943 1 SP EA NOT_NAMED 1943-01-07 09:00:00 NR -20.1577 155.081 main 514 514 __________P___ -1 TC -20.1577 155.081 7 7 113
1943001S14148 1943 1 SP EA NOT_NAMED 1943-01-07 12:00:00 NR -20.3000 155.400 main 535 535 __________O___ -1 TC -20.3000 155.400 7 6 120
1943001S14148 1943 1 SP EA NOT_NAMED 1943-01-07 15:00:00 NR -20.4531 155.624 main 535 534 __________P___ -1 TC -20.4531 155.624 7 5 129
1943001S14148 1943 1 SP EA NOT_NAMED 1943-01-07 18:00:00 NR -20.6311 155.834 main 534 525 __________P___ -1 TC -20.6311 155.834 7 6 133
1943001S14148 1943 1 SP EA NOT_NAMED 1943-01-07 21:00:00 NR -20.8435 156.077 main 531 515 __________P___ -1 TC -20.8435 156.077 7 7 132
1943001S14148 1943 1 SP EA NOT_NAMED 1943-01-08 00:00:00 NR -21.1000 156.400 main 521 516 __________O___ -1 -21.1000 156.400 7 9 129
1943001S14148 1943 1 SP EA NOT_NAMED 1943-01-08 03:00:00 NR -21.3940 156.816 main 521 520 __________P___ -1 -21.3940 156.816 7 11 126
1943001S14148 1943 1 SP EA NOT_NAMED 1943-01-08 06:00:00 NR -21.7311 157.322 main 535 535 __________P___ -1 -21.7311 157.322 7 12 125
1943001S14148 1943 1 SP EA NOT_NAMED 1943-01-08 09:00:00 NR -22.1027 157.917 main 557 557 __________P___ -1 -22.1027 157.917 7 14 123
1943001S14148 1943 1 SP EA NOT_NAMED 1943-01-08 12:00:00 NR -22.5000 158.600 main 597 557 __________O___ -1 -22.5000 158.600 7 16 121
1943001S14148 1943 1 SP EA NOT_NAMED 1943-01-08 15:00:00 NR -22.9177 159.407 main 557 515 __________P___ -1 -22.9177 159.407 7 18 119
1943001S14148 1943 1 SP MM NOT_NAMED 1943-01-08 18:00:00 NR -23.3531 160.290 main 512 467 __________P___ -1 -23.3531 160.290 7 18 118
1943001S14148 1943 1 SP MM NOT_NAMED 1943-01-08 21:00:00 NR -23.7866 161.179 main 464 430 __________P___ -1 -23.7866 161.179 7 18 118
1943001S14148 1943 1 SP MM NOT_NAMED 1943-01-09 00:00:00 NR -24.2000 162.000 main 431 421 __________O___ -1 -24.2000 162.000 2 16 121
1943001S14148 1943 1 SP MM NOT_NAMED 1943-01-09 03:00:00 NR -24.6013 162.647 main 428 422 __________P___ -1 -24.6013 162.647 2 14 125
1943001S14148 1943 1 SP MM NOT_NAMED 1943-01-09 06:00:00 NR -24.9789 163.219 main 436 427 __________P___ -1 -24.9789 163.219 2 12 125
1943001S14148 1943 1 SP MM NOT_NAMED 1943-01-09 09:00:00 NR -25.3173 163.756 main 426 421 __________P___ -1 -25.3173 163.756 2 12 122
1943001S14148 1943 1 SP MM NOT_NAMED 1943-01-09 12:00:00 NR -25.6000 164.300 main 426 417 __________O___ -1 -25.6000 164.300 2 11 114
1943001S14148 1943 1 SP MM NOT_NAMED 1943-01-09 15:00:00 NR -25.7733 164.878 main 419 409 __________P___ -1 -25.7733 164.878 2 11 106
1943001S14148 1943 1 SP MM NOT_NAMED 1943-01-09 18:00:00 NR -25.8974 165.473 main 409 404 __________P___ -1 -25.8974 165.473 2 11 103
1943001S14148 1943 1 SP MM NOT_NAMED 1943-01-09 21:00:00 NR -26.0228 166.106 main 406 405 __________P___ -1 -26.0228 166.106 2 12 104
1943001S14148 1943 1 SP MM NOT_NAMED 1943-01-10 00:00:00 NR -26.2000 166.800 main 424 424 __________O___ -1 -26.2000 166.800 2 14 109
1943001S14148 1943 1 SP MM NOT_NAMED 1943-01-10 03:00:00 NR -26.4943 167.624 main 463 463 __________P___ -1 -26.4943 167.624 2 17 113
1943001S14148 1943 1 SP MM NOT_NAMED 1943-01-10 06:00:00 NR -26.8427 168.505 main 517 517 __________P___ -1 -26.8427 168.505 2 17 115
1943001S14148 1943 1 SP MM NOT_NAMED 1943-01-10 09:00:00 NR -27.2194 169.384 main 592 592 __________P___ -1 -27.2194 169.384 2 17 117
1943001S14148 1943 1 SP MM NOT_NAMED 1943-01-10 12:00:00 NR -27.6000 170.200 main 669 669 __________O___ -1 -27.6000 170.200 2 15 119
1943001S14148 1943 1 SP MM NOT_NAMED 1943-01-10 15:00:00 NR -27.9302 170.847 main 728 711 __________P___ -1 -27.9302 170.847 2 13 122
1943001S14148 1943 1 SP MM NOT_NAMED 1943-01-10 18:00:00 NR -28.2652 171.428 main 700 660 __________P___ -1 -28.2652 171.428 2 12 124
1943001S14148 1943 1 SP MM NOT_NAMED 1943-01-10 21:00:00 NR -28.6178 171.994 main 660 613 __________P___ -1 -28.6178 171.994 2 13 126
1943001S14148 1943 1 SP MM NOT_NAMED 1943-01-11 00:00:00 NR -29.0000 172.600 main 613 569 __________O___ -1 -29.0000 172.600 2 14 124
1943001S14148 1943 1 SP MM NOT_NAMED 1943-01-11 03:00:00 NR -29.4346 173.356 main 570 523 __________P___ -1 -29.4346 173.356 2 16 123
1943001S14148 1943 1 SP MM NOT_NAMED 1943-01-11 06:00:00 NR -29.8943 174.155 main 525 497 __________P___ -1 -29.8943 174.155 2 17 124
1943001S14148 1943 1 SP MM NOT_NAMED 1943-01-11 09:00:00 NR -30.3566 174.953 main 494 478 __________P___ -1 -30.3566 174.953 2 16 124
1943001S14148 1943 1 SP MM NOT_NAMED 1943-01-11 12:00:00 NR -30.8000 175.700 main 483 476 __________O___ -1 -30.8000 175.700 2 15 125
1943001S14148 1943 1 SP MM NOT_NAMED 1943-01-11 15:00:00 NR -31.2092 176.361 main 485 473 __________P___ -1 -31.2092 176.361 2 13 127
1943001S14148 1943 1 SP MM NOT_NAMED 1943-01-11 18:00:00 NR -31.5894 176.947 main 473 469 __________P___ -1 -31.5894 176.947 2 12 128
1943001S14148 1943 1 SP MM NOT_NAMED 1943-01-11 21:00:00 NR -31.9500 177.485 main 480 471 __________P___ -1 -31.9500 177.485 2 11 128
1943001S14148 1943 1 SP MM NOT_NAMED 1943-01-12 00:00:00 NR -32.3000 178.000 main 477 __________O___ -1 -32.3000 178.000 2 11 129

Digital Typhoon Data and Search

About IBTrACS Database

This database is a web-friendly format of International Best Track Archive for Climate Stewardship (IBTrACS), a global best track data archive curated by NOAA dating back to 1842.

Updated: 2021-11-26